sensor_id;sensor_type;location;lat;lon;timestamp;P1;durP1;ratioP1;P2;durP2;ratioP2
2039;SDS011;1025;42.686;23.350;2023-10-08T00:01:17;8.60;;;5.73;;
2039;SDS011;1025;42.686;23.350;2023-10-08T00:03:44;7.33;;;6.53;;
2039;SDS011;1025;42.686;23.350;2023-10-08T00:06:14;8.33;;;6.00;;
2039;SDS011;1025;42.686;23.350;2023-10-08T00:08:40;6.63;;;5.70;;
2039;SDS011;1025;42.686;23.350;2023-10-08T00:11:07;6.17;;;5.40;;
2039;SDS011;1025;42.686;23.350;2023-10-08T00:13:36;9.67;;;6.30;;
2039;SDS011;1025;42.686;23.350;2023-10-08T00:16:05;7.50;;;5.77;;
2039;SDS011;1025;42.686;23.350;2023-10-08T00:18:34;6.80;;;5.43;;
2039;SDS011;1025;42.686;23.350;2023-10-08T00:21:01;6.30;;;5.67;;
2039;SDS011;1025;42.686;23.350;2023-10-08T00:23:41;8.60;;;5.47;;
2039;SDS011;1025;42.686;23.350;2023-10-08T00:26:13;10.87;;;6.73;;
2039;SDS011;1025;42.686;23.350;2023-10-08T00:28:45;8.30;;;5.30;;
2039;SDS011;1025;42.686;23.350;2023-10-08T00:31:13;6.73;;;6.03;;
2039;SDS011;1025;42.686;23.350;2023-10-08T00:33:42;5.50;;;4.83;;
2039;SDS011;1025;42.686;23.350;2023-10-08T00:36:09;7.10;;;6.20;;
2039;SDS011;1025;42.686;23.350;2023-10-08T00:38:44;5.50;;;5.00;;
2039;SDS011;1025;42.686;23.350;2023-10-08T00:41:12;8.37;;;6.27;;
2039;SDS011;1025;42.686;23.350;2023-10-08T00:43:39;5.80;;;5.30;;
2039;SDS011;1025;42.686;23.350;2023-10-08T00:46:08;9.23;;;5.30;;
2039;SDS011;1025;42.686;23.350;2023-10-08T00:48:43;14.03;;;5.80;;
2039;SDS011;1025;42.686;23.350;2023-10-08T00:51:11;6.80;;;6.10;;
2039;SDS011;1025;42.686;23.350;2023-10-08T00:53:52;6.47;;;5.20;;
2039;SDS011;1025;42.686;23.350;2023-10-08T00:56:23;7.37;;;5.93;;
2039;SDS011;1025;42.686;23.350;2023-10-08T00:58:50;7.90;;;5.70;;
2039;SDS011;1025;42.686;23.350;2023-10-08T01:01:20;13.67;;;7.17;;
2039;SDS011;1025;42.686;23.350;2023-10-08T01:03:48;5.93;;;5.30;;
2039;SDS011;1025;42.686;23.350;2023-10-08T01:06:15;9.20;;;7.40;;
2039;SDS011;1025;42.686;23.350;2023-10-08T01:08:44;8.23;;;5.83;;
2039;SDS011;1025;42.686;23.350;2023-10-08T01:11:16;8.43;;;5.97;;
2039;SDS011;1025;42.686;23.350;2023-10-08T01:13:43;6.00;;;5.30;;
2039;SDS011;1025;42.686;23.350;2023-10-08T01:16:11;8.87;;;5.97;;
2039;SDS011;1025;42.686;23.350;2023-10-08T01:18:40;8.17;;;6.23;;
2039;SDS011;1025;42.686;23.350;2023-10-08T01:21:15;8.03;;;6.57;;
2039;SDS011;1025;42.686;23.350;2023-10-08T01:23:57;8.80;;;6.30;;
2039;SDS011;1025;42.686;23.350;2023-10-08T01:26:25;6.43;;;5.83;;
2039;SDS011;1025;42.686;23.350;2023-10-08T01:28:54;8.97;;;5.77;;
2039;SDS011;1025;42.686;23.350;2023-10-08T01:31:21;5.93;;;5.33;;
2039;SDS011;1025;42.686;23.350;2023-10-08T01:33:48;7.10;;;6.40;;
2039;SDS011;1025;42.686;23.350;2023-10-08T01:36:21;19.53;;;8.20;;
2039;SDS011;1025;42.686;23.350;2023-10-08T01:38:48;7.90;;;6.00;;
2039;SDS011;1025;42.686;23.350;2023-10-08T01:41:16;7.60;;;5.90;;
2039;SDS011;1025;42.686;23.350;2023-10-08T01:43:54;13.27;;;5.60;;
2039;SDS011;1025;42.686;23.350;2023-10-08T01:46:20;15.97;;;6.47;;
2039;SDS011;1025;42.686;23.350;2023-10-08T01:48:47;8.67;;;5.70;;
2039;SDS011;1025;42.686;23.350;2023-10-08T01:51:18;6.93;;;4.93;;
2039;SDS011;1025;42.686;23.350;2023-10-08T01:53:50;6.93;;;5.83;;
2039;SDS011;1025;42.686;23.350;2023-10-08T01:56:20;9.30;;;6.53;;
2039;SDS011;1025;42.686;23.350;2023-10-08T01:58:47;6.50;;;5.00;;
2039;SDS011;1025;42.686;23.350;2023-10-08T02:01:13;6.10;;;5.43;;
2039;SDS011;1025;42.686;23.350;2023-10-08T02:03:41;6.10;;;5.40;;
2039;SDS011;1025;42.686;23.350;2023-10-08T02:06:08;7.73;;;5.90;;
2039;SDS011;1025;42.686;23.350;2023-10-08T02:08:34;5.33;;;4.80;;
2039;SDS011;1025;42.686;23.350;2023-10-08T02:11:01;5.40;;;4.90;;
2039;SDS011;1025;42.686;23.350;2023-10-08T02:13:29;5.00;;;4.50;;
2039;SDS011;1025;42.686;23.350;2023-10-08T02:15:56;5.83;;;4.97;;
2039;SDS011;1025;42.686;23.350;2023-10-08T02:18:23;5.00;;;4.50;;
2039;SDS011;1025;42.686;23.350;2023-10-08T02:20:50;8.23;;;4.67;;
2039;SDS011;1025;42.686;23.350;2023-10-08T02:23:17;7.73;;;4.70;;
2039;SDS011;1025;42.686;23.350;2023-10-08T02:25:44;10.87;;;5.30;;
2039;SDS011;1025;42.686;23.350;2023-10-08T02:28:10;6.77;;;5.50;;
2039;SDS011;1025;42.686;23.350;2023-10-08T02:30:42;4.33;;;3.97;;
2039;SDS011;1025;42.686;23.350;2023-10-08T02:33:08;14.97;;;5.30;;
2039;SDS011;1025;42.686;23.350;2023-10-08T02:35:39;8.60;;;5.50;;
2039;SDS011;1025;42.686;23.350;2023-10-08T02:38:06;6.07;;;4.90;;
2039;SDS011;1025;42.686;23.350;2023-10-08T02:40:34;8.00;;;4.40;;
2039;SDS011;1025;42.686;23.350;2023-10-08T02:43:09;6.17;;;4.63;;
2039;SDS011;1025;42.686;23.350;2023-10-08T02:45:37;5.47;;;4.60;;
2039;SDS011;1025;42.686;23.350;2023-10-08T02:48:06;9.03;;;5.50;;
2039;SDS011;1025;42.686;23.350;2023-10-08T02:50:37;8.73;;;4.67;;
2039;SDS011;1025;42.686;23.350;2023-10-08T02:53:04;5.03;;;4.63;;
2039;SDS011;1025;42.686;23.350;2023-10-08T02:55:37;6.70;;;4.60;;
2039;SDS011;1025;42.686;23.350;2023-10-08T02:58:09;7.70;;;5.40;;
2039;SDS011;1025;42.686;23.350;2023-10-08T03:00:39;9.50;;;5.60;;
2039;SDS011;1025;42.686;23.350;2023-10-08T03:03:07;7.80;;;5.33;;
2039;SDS011;1025;42.686;23.350;2023-10-08T03:05:40;8.67;;;6.27;;
2039;SDS011;1025;42.686;23.350;2023-10-08T03:08:09;7.43;;;4.93;;
2039;SDS011;1025;42.686;23.350;2023-10-08T03:10:37;7.67;;;5.27;;
2039;SDS011;1025;42.686;23.350;2023-10-08T03:13:03;6.43;;;5.10;;
2039;SDS011;1025;42.686;23.350;2023-10-08T03:15:31;6.80;;;4.53;;
2039;SDS011;1025;42.686;23.350;2023-10-08T03:18:04;5.80;;;5.07;;
2039;SDS011;1025;42.686;23.350;2023-10-08T03:20:36;8.03;;;5.77;;
2039;SDS011;1025;42.686;23.350;2023-10-08T03:23:09;9.03;;;5.73;;
2039;SDS011;1025;42.686;23.350;2023-10-08T03:25:50;11.30;;;6.33;;
2039;SDS011;1025;42.686;23.350;2023-10-08T03:28:21;10.33;;;6.07;;
2039;SDS011;1025;42.686;23.350;2023-10-08T03:30:50;5.83;;;4.30;;
2039;SDS011;1025;42.686;23.350;2023-10-08T03:33:16;9.20;;;5.70;;
2039;SDS011;1025;42.686;23.350;2023-10-08T03:35:49;9.40;;;5.03;;
2039;SDS011;1025;42.686;23.350;2023-10-08T03:38:18;9.63;;;5.83;;
2039;SDS011;1025;42.686;23.350;2023-10-08T03:40:47;9.00;;;5.97;;
2039;SDS011;1025;42.686;23.350;2023-10-08T03:43:22;9.57;;;6.53;;
2039;SDS011;1025;42.686;23.350;2023-10-08T03:45:58;10.23;;;5.30;;
2039;SDS011;1025;42.686;23.350;2023-10-08T03:48:30;11.33;;;6.27;;
2039;SDS011;1025;42.686;23.350;2023-10-08T03:51:03;8.27;;;5.33;;
2039;SDS011;1025;42.686;23.350;2023-10-08T03:53:37;7.30;;;5.87;;
2039;SDS011;1025;42.686;23.350;2023-10-08T03:56:22;7.50;;;5.23;;
2039;SDS011;1025;42.686;23.350;2023-10-08T03:58:49;7.03;;;5.00;;
2039;SDS011;1025;42.686;23.350;2023-10-08T04:01:19;7.90;;;5.10;;
2039;SDS011;1025;42.686;23.350;2023-10-08T04:03:47;8.63;;;5.37;;
2039;SDS011;1025;42.686;23.350;2023-10-08T04:06:25;6.83;;;6.13;;
2039;SDS011;1025;42.686;23.350;2023-10-08T04:08:56;6.60;;;5.53;;
2039;SDS011;1025;42.686;23.350;2023-10-08T04:11:36;10.30;;;5.27;;
2039;SDS011;1025;42.686;23.350;2023-10-08T04:14:14;13.70;;;6.50;;
2039;SDS011;1025;42.686;23.350;2023-10-08T04:16:42;8.33;;;5.40;;
2039;SDS011;1025;42.686;23.350;2023-10-08T04:19:09;13.60;;;6.90;;
2039;SDS011;1025;42.686;23.350;2023-10-08T04:21:37;9.20;;;5.70;;
2039;SDS011;1025;42.686;23.350;2023-10-08T04:24:06;9.07;;;6.33;;
2039;SDS011;1025;42.686;23.350;2023-10-08T04:26:33;12.17;;;6.77;;
2039;SDS011;1025;42.686;23.350;2023-10-08T04:29:00;12.90;;;6.63;;
2039;SDS011;1025;42.686;23.350;2023-10-08T04:31:28;7.77;;;6.83;;
2039;SDS011;1025;42.686;23.350;2023-10-08T04:34:03;9.67;;;7.30;;
2039;SDS011;1025;42.686;23.350;2023-10-08T04:36:36;7.77;;;5.27;;
2039;SDS011;1025;42.686;23.350;2023-10-08T04:39:05;7.73;;;6.00;;
2039;SDS011;1025;42.686;23.350;2023-10-08T04:41:38;14.33;;;6.77;;
2039;SDS011;1025;42.686;23.350;2023-10-08T04:44:07;9.07;;;7.10;;
2039;SDS011;1025;42.686;23.350;2023-10-08T04:46:39;16.27;;;7.13;;
2039;SDS011;1025;42.686;23.350;2023-10-08T04:49:17;12.30;;;7.00;;
2039;SDS011;1025;42.686;23.350;2023-10-08T04:51:53;14.70;;;9.23;;
2039;SDS011;1025;42.686;23.350;2023-10-08T04:54:22;13.17;;;7.77;;
2039;SDS011;1025;42.686;23.350;2023-10-08T04:56:49;11.20;;;7.77;;
2039;SDS011;1025;42.686;23.350;2023-10-08T04:59:18;10.60;;;7.03;;
2039;SDS011;1025;42.686;23.350;2023-10-08T05:01:47;9.90;;;7.50;;
2039;SDS011;1025;42.686;23.350;2023-10-08T05:04:14;11.60;;;7.43;;
2039;SDS011;1025;42.686;23.350;2023-10-08T05:06:52;8.37;;;7.23;;
2039;SDS011;1025;42.686;23.350;2023-10-08T05:09:27;10.93;;;7.93;;
2039;SDS011;1025;42.686;23.350;2023-10-08T05:12:11;8.73;;;7.93;;
2039;SDS011;1025;42.686;23.350;2023-10-08T05:14:55;9.90;;;7.30;;
2039;SDS011;1025;42.686;23.350;2023-10-08T05:17:42;14.33;;;9.93;;
2039;SDS011;1025;42.686;23.350;2023-10-08T05:20:21;11.60;;;8.63;;
2039;SDS011;1025;42.686;23.350;2023-10-08T05:23:09;13.80;;;7.53;;
2039;SDS011;1025;42.686;23.350;2023-10-08T05:25:47;10.43;;;8.47;;
2039;SDS011;1025;42.686;23.350;2023-10-08T05:28:34;10.83;;;8.67;;
2039;SDS011;1025;42.686;23.350;2023-10-08T05:31:06;11.23;;;7.13;;
2039;SDS011;1025;42.686;23.350;2023-10-08T05:33:46;13.40;;;7.57;;
2039;SDS011;1025;42.686;23.350;2023-10-08T05:36:25;12.10;;;7.63;;
2039;SDS011;1025;42.686;23.350;2023-10-08T05:39:01;11.43;;;6.50;;
2039;SDS011;1025;42.686;23.350;2023-10-08T05:41:30;9.47;;;7.60;;
2039;SDS011;1025;42.686;23.350;2023-10-08T05:44:16;10.83;;;8.30;;
2039;SDS011;1025;42.686;23.350;2023-10-08T05:47:03;11.50;;;7.33;;
2039;SDS011;1025;42.686;23.350;2023-10-08T05:49:49;12.33;;;6.57;;
2039;SDS011;1025;42.686;23.350;2023-10-08T05:52:29;9.17;;;7.43;;
2039;SDS011;1025;42.686;23.350;2023-10-08T05:55:16;12.00;;;7.47;;
2039;SDS011;1025;42.686;23.350;2023-10-08T05:57:52;9.73;;;6.63;;
2039;SDS011;1025;42.686;23.350;2023-10-08T06:00:28;12.07;;;7.67;;
2039;SDS011;1025;42.686;23.350;2023-10-08T06:03:26;11.77;;;7.77;;
2039;SDS011;1025;42.686;23.350;2023-10-08T06:06:02;9.53;;;8.63;;
2039;SDS011;1025;42.686;23.350;2023-10-08T06:08:46;12.13;;;8.00;;
2039;SDS011;1025;42.686;23.350;2023-10-08T06:11:17;20.87;;;9.37;;
2039;SDS011;1025;42.686;23.350;2023-10-08T06:13:57;11.23;;;8.13;;
2039;SDS011;1025;42.686;23.350;2023-10-08T06:16:25;12.27;;;8.27;;
2039;SDS011;1025;42.686;23.350;2023-10-08T06:18:56;13.40;;;7.97;;
2039;SDS011;1025;42.686;23.350;2023-10-08T06:21:23;13.60;;;6.40;;
2039;SDS011;1025;42.686;23.350;2023-10-08T06:23:52;14.93;;;8.27;;
2039;SDS011;1025;42.686;23.350;2023-10-08T06:26:21;6.97;;;6.03;;
2039;SDS011;1025;42.686;23.350;2023-10-08T06:28:50;9.93;;;6.07;;
2039;SDS011;1025;42.686;23.350;2023-10-08T06:31:23;11.90;;;6.90;;
2039;SDS011;1025;42.686;23.350;2023-10-08T06:33:51;15.00;;;11.00;;
2039;SDS011;1025;42.686;23.350;2023-10-08T06:36:18;11.40;;;8.23;;
2039;SDS011;1025;42.686;23.350;2023-10-08T06:38:49;10.33;;;8.47;;
2039;SDS011;1025;42.686;23.350;2023-10-08T06:41:16;11.00;;;7.20;;
2039;SDS011;1025;42.686;23.350;2023-10-08T06:43:43;11.10;;;7.83;;
2039;SDS011;1025;42.686;23.350;2023-10-08T06:46:10;11.40;;;7.37;;
2039;SDS011;1025;42.686;23.350;2023-10-08T06:48:39;10.77;;;8.50;;
2039;SDS011;1025;42.686;23.350;2023-10-08T06:51:07;9.33;;;7.53;;
2039;SDS011;1025;42.686;23.350;2023-10-08T06:53:38;9.90;;;7.70;;
2039;SDS011;1025;42.686;23.350;2023-10-08T06:56:04;7.70;;;6.93;;
2039;SDS011;1025;42.686;23.350;2023-10-08T06:58:31;11.90;;;7.70;;
2039;SDS011;1025;42.686;23.350;2023-10-08T07:00:58;10.30;;;6.87;;
2039;SDS011;1025;42.686;23.350;2023-10-08T07:03:29;10.77;;;7.20;;
2039;SDS011;1025;42.686;23.350;2023-10-08T07:05:58;16.53;;;7.70;;
2039;SDS011;1025;42.686;23.350;2023-10-08T07:08:25;14.17;;;7.53;;
2039;SDS011;1025;42.686;23.350;2023-10-08T07:10:52;12.40;;;8.10;;
2039;SDS011;1025;42.686;23.350;2023-10-08T07:13:21;8.80;;;6.33;;
2039;SDS011;1025;42.686;23.350;2023-10-08T07:15:48;11.00;;;7.40;;
2039;SDS011;1025;42.686;23.350;2023-10-08T07:18:15;13.07;;;6.63;;
2039;SDS011;1025;42.686;23.350;2023-10-08T07:20:49;9.03;;;6.23;;
2039;SDS011;1025;42.686;23.350;2023-10-08T07:23:20;8.73;;;6.13;;
2039;SDS011;1025;42.686;23.350;2023-10-08T07:25:53;9.00;;;6.77;;
2039;SDS011;1025;42.686;23.350;2023-10-08T07:28:23;10.00;;;7.57;;
2039;SDS011;1025;42.686;23.350;2023-10-08T07:30:50;10.63;;;6.90;;
2039;SDS011;1025;42.686;23.350;2023-10-08T07:33:17;9.63;;;6.80;;
2039;SDS011;1025;42.686;23.350;2023-10-08T07:35:44;8.80;;;7.27;;
2039;SDS011;1025;42.686;23.350;2023-10-08T07:38:17;8.60;;;6.90;;
2039;SDS011;1025;42.686;23.350;2023-10-08T07:40:45;13.03;;;8.17;;
2039;SDS011;1025;42.686;23.350;2023-10-08T07:43:12;10.43;;;8.43;;
2039;SDS011;1025;42.686;23.350;2023-10-08T07:45:38;11.17;;;7.33;;
2039;SDS011;1025;42.686;23.350;2023-10-08T07:48:05;14.20;;;7.40;;
2039;SDS011;1025;42.686;23.350;2023-10-08T07:50:35;11.40;;;7.80;;
2039;SDS011;1025;42.686;23.350;2023-10-08T07:53:03;15.03;;;8.70;;
2039;SDS011;1025;42.686;23.350;2023-10-08T07:55:29;15.17;;;9.30;;
2039;SDS011;1025;42.686;23.350;2023-10-08T07:57:59;10.70;;;7.13;;
2039;SDS011;1025;42.686;23.350;2023-10-08T08:00:29;15.10;;;7.73;;
2039;SDS011;1025;42.686;23.350;2023-10-08T08:03:04;9.40;;;6.63;;
2039;SDS011;1025;42.686;23.350;2023-10-08T08:05:31;18.00;;;10.00;;
2039;SDS011;1025;42.686;23.350;2023-10-08T08:07:58;11.43;;;7.47;;
2039;SDS011;1025;42.686;23.350;2023-10-08T08:10:30;15.57;;;7.20;;
2039;SDS011;1025;42.686;23.350;2023-10-08T08:13:03;7.80;;;6.90;;
2039;SDS011;1025;42.686;23.350;2023-10-08T08:15:31;12.77;;;7.20;;
2039;SDS011;1025;42.686;23.350;2023-10-08T08:17:58;12.47;;;6.93;;
2039;SDS011;1025;42.686;23.350;2023-10-08T08:20:25;7.57;;;6.77;;
2039;SDS011;1025;42.686;23.350;2023-10-08T08:23:04;8.90;;;6.10;;
2039;SDS011;1025;42.686;23.350;2023-10-08T08:25:35;5.93;;;5.07;;
2039;SDS011;1025;42.686;23.350;2023-10-08T08:28:12;8.90;;;6.17;;
2039;SDS011;1025;42.686;23.350;2023-10-08T08:30:42;10.83;;;7.07;;
2039;SDS011;1025;42.686;23.350;2023-10-08T08:33:12;9.80;;;5.33;;
2039;SDS011;1025;42.686;23.350;2023-10-08T08:35:39;11.27;;;6.87;;
2039;SDS011;1025;42.686;23.350;2023-10-08T08:38:05;17.43;;;7.63;;
2039;SDS011;1025;42.686;23.350;2023-10-08T08:40:34;17.53;;;6.73;;
2039;SDS011;1025;42.686;23.350;2023-10-08T08:43:00;10.67;;;5.50;;
2039;SDS011;1025;42.686;23.350;2023-10-08T08:45:31;6.73;;;5.80;;
2039;SDS011;1025;42.686;23.350;2023-10-08T08:47:58;13.47;;;4.90;;
2039;SDS011;1025;42.686;23.350;2023-10-08T08:50:25;5.70;;;4.77;;
2039;SDS011;1025;42.686;23.350;2023-10-08T08:52:52;6.60;;;5.20;;
2039;SDS011;1025;42.686;23.350;2023-10-08T08:55:18;5.50;;;4.00;;
2039;SDS011;1025;42.686;23.350;2023-10-08T08:57:47;8.47;;;4.80;;
2039;SDS011;1025;42.686;23.350;2023-10-08T09:00:15;6.77;;;4.80;;
2039;SDS011;1025;42.686;23.350;2023-10-08T09:02:43;8.63;;;4.30;;
2039;SDS011;1025;42.686;23.350;2023-10-08T09:05:12;5.57;;;4.30;;
2039;SDS011;1025;42.686;23.350;2023-10-08T09:07:54;6.43;;;5.10;;
2039;SDS011;1025;42.686;23.350;2023-10-08T09:10:21;12.90;;;5.40;;
2039;SDS011;1025;42.686;23.350;2023-10-08T09:12:53;13.70;;;6.17;;
2039;SDS011;1025;42.686;23.350;2023-10-08T09:15:21;7.00;;;4.40;;
2039;SDS011;1025;42.686;23.350;2023-10-08T09:17:49;7.27;;;4.27;;
2039;SDS011;1025;42.686;23.350;2023-10-08T09:20:17;5.13;;;4.63;;
2039;SDS011;1025;42.686;23.350;2023-10-08T09:22:45;6.47;;;4.50;;
2039;SDS011;1025;42.686;23.350;2023-10-08T09:25:15;6.73;;;5.20;;
2039;SDS011;1025;42.686;23.350;2023-10-08T09:27:43;6.97;;;4.33;;
2039;SDS011;1025;42.686;23.350;2023-10-08T09:30:12;5.97;;;4.13;;
2039;SDS011;1025;42.686;23.350;2023-10-08T09:32:43;6.77;;;5.37;;
2039;SDS011;1025;42.686;23.350;2023-10-08T09:35:11;11.43;;;5.90;;
2039;SDS011;1025;42.686;23.350;2023-10-08T09:37:39;7.70;;;3.80;;
2039;SDS011;1025;42.686;23.350;2023-10-08T09:40:07;7.23;;;5.00;;
2039;SDS011;1025;42.686;23.350;2023-10-08T09:42:35;6.73;;;5.03;;
2039;SDS011;1025;42.686;23.350;2023-10-08T09:45:03;6.03;;;5.37;;
2039;SDS011;1025;42.686;23.350;2023-10-08T09:47:31;17.77;;;5.90;;
2039;SDS011;1025;42.686;23.350;2023-10-08T09:50:01;5.53;;;4.93;;
2039;SDS011;1025;42.686;23.350;2023-10-08T09:52:36;8.40;;;4.90;;
2039;SDS011;1025;42.686;23.350;2023-10-08T09:55:06;6.00;;;4.77;;
2039;SDS011;1025;42.686;23.350;2023-10-08T09:57:35;11.50;;;4.80;;
2039;SDS011;1025;42.686;23.350;2023-10-08T10:00:02;9.37;;;5.13;;
2039;SDS011;1025;42.686;23.350;2023-10-08T10:02:30;6.53;;;4.43;;
2039;SDS011;1025;42.686;23.350;2023-10-08T10:04:57;5.60;;;4.20;;
2039;SDS011;1025;42.686;23.350;2023-10-08T10:07:26;9.03;;;5.20;;
2039;SDS011;1025;42.686;23.350;2023-10-08T10:09:55;13.80;;;5.83;;
2039;SDS011;1025;42.686;23.350;2023-10-08T10:12:24;4.57;;;4.17;;
2039;SDS011;1025;42.686;23.350;2023-10-08T10:14:52;8.43;;;5.03;;
2039;SDS011;1025;42.686;23.350;2023-10-08T10:17:20;10.30;;;4.80;;
2039;SDS011;1025;42.686;23.350;2023-10-08T10:19:49;11.80;;;5.17;;
2039;SDS011;1025;42.686;23.350;2023-10-08T10:22:26;11.83;;;5.47;;
2039;SDS011;1025;42.686;23.350;2023-10-08T10:24:55;7.93;;;3.80;;
2039;SDS011;1025;42.686;23.350;2023-10-08T10:27:22;13.70;;;5.10;;
2039;SDS011;1025;42.686;23.350;2023-10-08T10:29:49;14.47;;;4.13;;
2039;SDS011;1025;42.686;23.350;2023-10-08T10:32:17;7.47;;;3.97;;
2039;SDS011;1025;42.686;23.350;2023-10-08T10:34:44;5.47;;;4.43;;
2039;SDS011;1025;42.686;23.350;2023-10-08T10:37:12;8.20;;;3.80;;
2039;SDS011;1025;42.686;23.350;2023-10-08T10:39:56;16.90;;;5.40;;
2039;SDS011;1025;42.686;23.350;2023-10-08T10:42:25;29.60;;;6.40;;
2039;SDS011;1025;42.686;23.350;2023-10-08T10:44:53;5.30;;;3.83;;
2039;SDS011;1025;42.686;23.350;2023-10-08T10:47:21;11.63;;;4.30;;
2039;SDS011;1025;42.686;23.350;2023-10-08T10:50:07;7.07;;;4.40;;
2039;SDS011;1025;42.686;23.350;2023-10-08T10:52:51;6.57;;;3.93;;
2039;SDS011;1025;42.686;23.350;2023-10-08T10:55:22;10.80;;;4.90;;
2039;SDS011;1025;42.686;23.350;2023-10-08T10:57:56;18.80;;;4.33;;
2039;SDS011;1025;42.686;23.350;2023-10-08T11:00:29;5.97;;;4.77;;
2039;SDS011;1025;42.686;23.350;2023-10-08T11:03:21;11.63;;;3.70;;
2039;SDS011;1025;42.686;23.350;2023-10-08T11:05:50;5.23;;;4.30;;
2039;SDS011;1025;42.686;23.350;2023-10-08T11:08:20;8.37;;;4.10;;
2039;SDS011;1025;42.686;23.350;2023-10-08T11:10:49;4.80;;;4.10;;
2039;SDS011;1025;42.686;23.350;2023-10-08T11:13:20;9.93;;;4.53;;
2039;SDS011;1025;42.686;23.350;2023-10-08T11:15:47;7.33;;;4.20;;
2039;SDS011;1025;42.686;23.350;2023-10-08T11:18:17;10.10;;;4.30;;
2039;SDS011;1025;42.686;23.350;2023-10-08T11:20:43;10.17;;;3.70;;
2039;SDS011;1025;42.686;23.350;2023-10-08T11:23:10;6.90;;;4.10;;
2039;SDS011;1025;42.686;23.350;2023-10-08T11:25:54;7.10;;;3.40;;
2039;SDS011;1025;42.686;23.350;2023-10-08T11:28:20;10.53;;;5.17;;
2039;SDS011;1025;42.686;23.350;2023-10-08T11:30:51;8.73;;;4.23;;
2039;SDS011;1025;42.686;23.350;2023-10-08T11:33:18;6.27;;;3.87;;
2039;SDS011;1025;42.686;23.350;2023-10-08T11:35:54;7.20;;;4.60;;
2039;SDS011;1025;42.686;23.350;2023-10-08T11:38:24;11.20;;;4.60;;
2039;SDS011;1025;42.686;23.350;2023-10-08T11:40:53;5.97;;;3.80;;
2039;SDS011;1025;42.686;23.350;2023-10-08T11:43:22;4.93;;;3.87;;
2039;SDS011;1025;42.686;23.350;2023-10-08T11:45:49;7.80;;;4.60;;
2039;SDS011;1025;42.686;23.350;2023-10-08T11:48:15;7.07;;;5.60;;
2039;SDS011;1025;42.686;23.350;2023-10-08T11:50:51;11.97;;;4.50;;
2039;SDS011;1025;42.686;23.350;2023-10-08T11:53:17;7.33;;;4.13;;
2039;SDS011;1025;42.686;23.350;2023-10-08T11:55:44;10.97;;;5.37;;
2039;SDS011;1025;42.686;23.350;2023-10-08T11:58:14;7.50;;;4.80;;
2039;SDS011;1025;42.686;23.350;2023-10-08T12:00:45;11.53;;;4.27;;
2039;SDS011;1025;42.686;23.350;2023-10-08T12:03:17;9.20;;;5.60;;
2039;SDS011;1025;42.686;23.350;2023-10-08T12:05:43;7.63;;;4.83;;
2039;SDS011;1025;42.686;23.350;2023-10-08T12:08:13;15.63;;;5.00;;
2039;SDS011;1025;42.686;23.350;2023-10-08T12:10:41;9.20;;;4.50;;
2039;SDS011;1025;42.686;23.350;2023-10-08T12:13:08;5.97;;;3.90;;
2039;SDS011;1025;42.686;23.350;2023-10-08T12:15:36;14.97;;;3.80;;
2039;SDS011;1025;42.686;23.350;2023-10-08T12:18:06;9.30;;;4.90;;
2039;SDS011;1025;42.686;23.350;2023-10-08T12:20:40;12.27;;;4.43;;
2039;SDS011;1025;42.686;23.350;2023-10-08T12:23:09;7.70;;;3.90;;
2039;SDS011;1025;42.686;23.350;2023-10-08T12:25:36;9.20;;;3.97;;
2039;SDS011;1025;42.686;23.350;2023-10-08T12:28:02;14.63;;;4.00;;
2039;SDS011;1025;42.686;23.350;2023-10-08T12:30:29;8.57;;;4.70;;
2039;SDS011;1025;42.686;23.350;2023-10-08T12:33:08;10.37;;;4.17;;
2039;SDS011;1025;42.686;23.350;2023-10-08T12:35:37;11.97;;;4.37;;
2039;SDS011;1025;42.686;23.350;2023-10-08T12:38:04;9.10;;;4.60;;
2039;SDS011;1025;42.686;23.350;2023-10-08T12:40:31;7.60;;;3.70;;
2039;SDS011;1025;42.686;23.350;2023-10-08T12:43:07;11.90;;;4.43;;
2039;SDS011;1025;42.686;23.350;2023-10-08T12:45:33;9.57;;;5.03;;
2039;SDS011;1025;42.686;23.350;2023-10-08T12:48:03;11.97;;;4.40;;
2039;SDS011;1025;42.686;23.350;2023-10-08T12:53:22;11.93;;;5.53;;
2039;SDS011;1025;42.686;23.350;2023-10-08T12:55:52;22.60;;;5.17;;
2039;SDS011;1025;42.686;23.350;2023-10-08T12:58:20;12.97;;;5.27;;
2039;SDS011;1025;42.686;23.350;2023-10-08T13:00:50;10.10;;;3.90;;
2039;SDS011;1025;42.686;23.350;2023-10-08T13:03:22;19.50;;;6.10;;
2039;SDS011;1025;42.686;23.350;2023-10-08T13:05:49;17.23;;;5.57;;
2039;SDS011;1025;42.686;23.350;2023-10-08T13:08:17;5.40;;;3.70;;
2039;SDS011;1025;42.686;23.350;2023-10-08T13:10:46;11.40;;;4.50;;
2039;SDS011;1025;42.686;23.350;2023-10-08T13:13:13;12.30;;;4.60;;
2039;SDS011;1025;42.686;23.350;2023-10-08T13:15:39;26.07;;;5.77;;
2039;SDS011;1025;42.686;23.350;2023-10-08T13:18:06;16.20;;;4.83;;
2039;SDS011;1025;42.686;23.350;2023-10-08T13:20:33;12.50;;;3.77;;
2039;SDS011;1025;42.686;23.350;2023-10-08T13:23:00;6.20;;;3.20;;
2039;SDS011;1025;42.686;23.350;2023-10-08T13:25:26;8.03;;;3.57;;
2039;SDS011;1025;42.686;23.350;2023-10-08T13:27:54;13.60;;;3.97;;
2039;SDS011;1025;42.686;23.350;2023-10-08T13:30:20;8.17;;;4.20;;
2039;SDS011;1025;42.686;23.350;2023-10-08T13:32:48;18.43;;;5.30;;
2039;SDS011;1025;42.686;23.350;2023-10-08T13:35:16;8.47;;;3.57;;
2039;SDS011;1025;42.686;23.350;2023-10-08T13:37:43;9.43;;;4.00;;
2039;SDS011;1025;42.686;23.350;2023-10-08T13:40:10;10.50;;;4.43;;
2039;SDS011;1025;42.686;23.350;2023-10-08T13:42:40;7.90;;;5.40;;
2039;SDS011;1025;42.686;23.350;2023-10-08T13:45:08;12.73;;;5.17;;
2039;SDS011;1025;42.686;23.350;2023-10-08T13:47:41;4.53;;;3.77;;
2039;SDS011;1025;42.686;23.350;2023-10-08T13:50:08;7.70;;;3.80;;
2039;SDS011;1025;42.686;23.350;2023-10-08T13:52:38;10.23;;;4.20;;
2039;SDS011;1025;42.686;23.350;2023-10-08T13:55:05;19.30;;;5.20;;
2039;SDS011;1025;42.686;23.350;2023-10-08T13:57:32;7.67;;;5.10;;
2039;SDS011;1025;42.686;23.350;2023-10-08T13:59:59;8.00;;;4.33;;
2039;SDS011;1025;42.686;23.350;2023-10-08T14:02:28;9.60;;;4.23;;
2039;SDS011;1025;42.686;23.350;2023-10-08T14:04:55;6.77;;;3.53;;
2039;SDS011;1025;42.686;23.350;2023-10-08T14:07:22;8.07;;;3.80;;
2039;SDS011;1025;42.686;23.350;2023-10-08T14:09:50;6.50;;;3.87;;
2039;SDS011;1025;42.686;23.350;2023-10-08T14:12:16;8.60;;;4.00;;
2039;SDS011;1025;42.686;23.350;2023-10-08T14:14:43;9.10;;;4.13;;
2039;SDS011;1025;42.686;23.350;2023-10-08T14:17:10;7.27;;;3.60;;
2039;SDS011;1025;42.686;23.350;2023-10-08T14:19:41;19.03;;;4.50;;
2039;SDS011;1025;42.686;23.350;2023-10-08T14:22:16;18.33;;;4.80;;
2039;SDS011;1025;42.686;23.350;2023-10-08T14:24:44;11.77;;;3.70;;
2039;SDS011;1025;42.686;23.350;2023-10-08T14:27:11;7.13;;;3.40;;
2039;SDS011;1025;42.686;23.350;2023-10-08T14:29:40;9.17;;;4.53;;
2039;SDS011;1025;42.686;23.350;2023-10-08T14:32:09;7.27;;;3.33;;
2039;SDS011;1025;42.686;23.350;2023-10-08T14:34:36;10.63;;;4.57;;
2039;SDS011;1025;42.686;23.350;2023-10-08T14:37:21;10.83;;;3.77;;
2039;SDS011;1025;42.686;23.350;2023-10-08T14:40:05;8.37;;;3.60;;
2039;SDS011;1025;42.686;23.350;2023-10-08T14:42:49;9.73;;;3.63;;
2039;SDS011;1025;42.686;23.350;2023-10-08T14:45:24;10.03;;;3.90;;
2039;SDS011;1025;42.686;23.350;2023-10-08T14:47:54;12.13;;;4.60;;
2039;SDS011;1025;42.686;23.350;2023-10-08T14:50:23;36.60;;;6.30;;
2039;SDS011;1025;42.686;23.350;2023-10-08T14:52:58;10.37;;;4.00;;
2039;SDS011;1025;42.686;23.350;2023-10-08T14:55:25;12.60;;;4.70;;
2039;SDS011;1025;42.686;23.350;2023-10-08T14:57:54;11.77;;;5.23;;
2039;SDS011;1025;42.686;23.350;2023-10-08T15:00:21;13.53;;;4.97;;
2039;SDS011;1025;42.686;23.350;2023-10-08T15:02:50;8.90;;;5.80;;
2039;SDS011;1025;42.686;23.350;2023-10-08T15:05:16;8.37;;;3.90;;
2039;SDS011;1025;42.686;23.350;2023-10-08T15:07:43;13.20;;;4.63;;
2039;SDS011;1025;42.686;23.350;2023-10-08T15:10:11;11.20;;;4.40;;
2039;SDS011;1025;42.686;23.350;2023-10-08T15:12:38;7.67;;;3.87;;
2039;SDS011;1025;42.686;23.350;2023-10-08T15:15:05;9.40;;;3.67;;
2039;SDS011;1025;42.686;23.350;2023-10-08T15:17:37;16.70;;;4.17;;